<?xml version="1.0" encoding="UTF-8" standalone="no" ?><gpx xmlns="http://www.topografix.com/GPX/1/1" xmlns:gpxx="http://www.garmin.com/xmlschemas/GpxExtensions/v3" xmlns:wptx1="http://www.garmin.com/xmlschemas/WaypointExtension/v1" xmlns:gpxtpx="http://www.garmin.com/xmlschemas/TrackPointExtension/v1" creator="Dakota 20" version="1.1" xmlns:xsi="http://www.w3.org/2001/XMLSchema-instance" xsi:schemaLocation="http://www.topografix.com/GPX/1/1 http://www.topografix.com/GPX/1/1/gpx.xsd http://www.garmin.com/xmlschemas/GpxExtensions/v3 http://www8.garmin.com/xmlschemas/GpxExtensionsv3.xsd http://www.garmin.com/xmlschemas/WaypointExtension/v1 http://www8.garmin.com/xmlschemas/WaypointExtensionv1.xsd http://www.garmin.com/xmlschemas/TrackPointExtension/v1 http://www.garmin.com/xmlschemas/TrackPointExtensionv1.xsd"><metadata><link href="http://www.garmin.com"><text>Garmin International</text></link><time>2014-04-23T16:38:44Z</time></metadata><trk><name>Current Track: 23 APR 2014 09:58</name><extensions><gpxx:TrackExtension><gpxx:DisplayColor>Cyan</gpxx:DisplayColor></gpxx:TrackExtension></extensions><trkseg><trkpt lat="52.0662755426" lon="-2.2123012505"><ele>17.92</ele><time>2014-04-23T08:58:48Z</time></trkpt><trkpt lat="52.0662731119" lon="-2.2123020887"><ele>14.56</ele><time>2014-04-23T08:58:55Z</time></trkpt><trkpt lat="52.0662730280" lon="-2.2123022564"><ele>17.92</ele><time>2014-04-23T08:58:56Z</time></trkpt><trkpt lat="52.0662656520" lon="-2.2122987360"><ele>18.40</ele><time>2014-04-23T08:59:16Z</time></trkpt><trkpt lat="52.0662679989" lon="-2.2123074532"><ele>17.92</ele><time>2014-04-23T08:59:43Z</time></trkpt><trkpt lat="52.0662313700" lon="-2.2124548908"><ele>17.44</ele><time>2014-04-23T09:00:00Z</time></trkpt><trkpt lat="52.0661626384" lon="-2.2125638556"><ele>16.96</ele><time>2014-04-23T09:00:16Z</time></trkpt><trkpt lat="52.0661510713" lon="-2.2126168292"><ele>16.96</ele><time>2014-04-23T09:00:19Z</time></trkpt><trkpt lat="52.0661773905" lon="-2.2129289713"><ele>17.92</ele><time>2014-04-23T09:00:36Z</time></trkpt><trkpt lat="52.0661697630" lon="-2.2132315580"><ele>17.44</ele><time>2014-04-23T09:00:52Z</time></trkpt><trkpt lat="52.0661689248" lon="-2.2132467292"><ele>17.44</ele><time>2014-04-23T09:00:53Z</time></trkpt><trkpt lat="52.0661489759" lon="-2.2135540936"><ele>16.96</ele><time>2014-04-23T09:01:11Z</time></trkpt><trkpt lat="52.0661597047" lon="-2.2139124200"><ele>17.44</ele><time>2014-04-23T09:01:31Z</time></trkpt><trkpt lat="52.0661529154" lon="-2.2140368912"><ele>17.44</ele><time>2014-04-23T09:01:47Z</time></trkpt><trkpt lat="52.0661754627" lon="-2.2141150944"><ele>17.44</ele><time>2014-04-23T09:01:54Z</time></trkpt><trkpt lat="52.0661849342" lon="-2.2144177649"><ele>17.92</ele><time>2014-04-23T09:02:16Z</time></trkpt><trkpt lat="52.0662033744" lon="-2.2147900052"><ele>17.44</ele><time>2014-04-23T09:02:38Z</time></trkpt><trkpt lat="52.0662358124" lon="-2.2149734851"><ele>17.44</ele><time>2014-04-23T09:02:54Z</time></trkpt><trkpt lat="52.0662596170" lon="-2.2150278836"><ele>17.92</ele><time>2014-04-23T09:03:03Z</time></trkpt><trkpt lat="52.0662339684" lon="-2.2153484076"><ele>17.92</ele><time>2014-04-23T09:03:18Z</time></trkpt><trkpt lat="52.0662286878" lon="-2.2154414468"><ele>17.44</ele><time>2014-04-23T09:03:22Z</time></trkpt><trkpt lat="52.0662178751" lon="-2.2156322189"><ele>16.96</ele><time>2014-04-23T09:03:31Z</time></trkpt><trkpt lat="52.0662085712" lon="-2.2159233224"><ele>18.40</ele><time>2014-04-23T09:03:47Z</time></trkpt><trkpt lat="52.0662112534" lon="-2.2162237298"><ele>17.44</ele><time>2014-04-23T09:04:03Z</time></trkpt><trkpt lat="52.0662148576" lon="-2.2165074572"><ele>17.92</ele><time>2014-04-23T09:04:18Z</time></trkpt><trkpt lat="52.0662173722" lon="-2.2167272307"><ele>18.40</ele><time>2014-04-23T09:04:33Z</time></trkpt><trkpt lat="52.0662103314" lon="-2.2169105429"><ele>17.44</ele><time>2014-04-23T09:04:43Z</time></trkpt><trkpt lat="52.0661275182" lon="-2.2172331624"><ele>18.40</ele><time>2014-04-23T09:05:02Z</time></trkpt><trkpt lat="52.0660055615" lon="-2.2174385190"><ele>17.92</ele><time>2014-04-23T09:05:19Z</time></trkpt><trkpt lat="52.0659075771" lon="-2.2175737191"><ele>17.92</ele><time>2014-04-23T09:05:35Z</time></trkpt><trkpt lat="52.0659603830" lon="-2.2177214921"><ele>17.44</ele><time>2014-04-23T09:05:56Z</time></trkpt><trkpt lat="52.0659780689" lon="-2.2177669220"><ele>17.44</ele><time>2014-04-23T09:05:59Z</time></trkpt><trkpt lat="52.0660695154" lon="-2.2180742025"><ele>16.96</ele><time>2014-04-23T09:06:17Z</time></trkpt><trkpt lat="52.0660737064" lon="-2.2181055509"><ele>17.44</ele><time>2014-04-23T09:06:19Z</time></trkpt><trkpt lat="52.0660758018" lon="-2.2181576863"><ele>16.48</ele><time>2014-04-23T09:06:22Z</time></trkpt><trkpt lat="52.0661531668" lon="-2.2184524778"><ele>16.48</ele><time>2014-04-23T09:06:40Z</time></trkpt><trkpt lat="52.0661571063" lon="-2.2184874304"><ele>16.48</ele><time>2014-04-23T09:06:42Z</time></trkpt><trkpt lat="52.0661668293" lon="-2.2185413260"><ele>16.96</ele><time>2014-04-23T09:06:45Z</time></trkpt><trkpt lat="52.0662571862" lon="-2.2187999077"><ele>16.96</ele><time>2014-04-23T09:07:03Z</time></trkpt><trkpt lat="52.0663470402" lon="-2.2190838866"><ele>16.96</ele><time>2014-04-23T09:07:21Z</time></trkpt><trkpt lat="52.0664565079" lon="-2.2193797678"><ele>16.48</ele><time>2014-04-23T09:07:40Z</time></trkpt><trkpt lat="52.0665691607" lon="-2.2196585499"><ele>16.48</ele><time>2014-04-23T09:08:00Z</time></trkpt><trkpt lat="52.0666853338" lon="-2.2198975179"><ele>16.48</ele><time>2014-04-23T09:08:17Z</time></trkpt><trkpt lat="52.0667828154" lon="-2.2201761324"><ele>16.48</ele><time>2014-04-23T09:08:34Z</time></trkpt><trkpt lat="52.0669027604" lon="-2.2204290144"><ele>16.00</ele><time>2014-04-23T09:08:51Z</time></trkpt><trkpt lat="52.0670143235" lon="-2.2206831537"><ele>16.00</ele><time>2014-04-23T09:09:08Z</time></trkpt><trkpt lat="52.0671309158" lon="-2.2209463455"><ele>16.96</ele><time>2014-04-23T09:09:25Z</time></trkpt><trkpt lat="52.0672641043" lon="-2.2212115489"><ele>16.96</ele><time>2014-04-23T09:09:44Z</time></trkpt><trkpt lat="52.0674143080" lon="-2.2214371897"><ele>16.48</ele><time>2014-04-23T09:10:04Z</time></trkpt><trkpt lat="52.0675422996" lon="-2.2216307279"><ele>16.48</ele><time>2014-04-23T09:10:21Z</time></trkpt><trkpt lat="52.0676659327" lon="-2.2218375094"><ele>16.48</ele><time>2014-04-23T09:10:37Z</time></trkpt><trkpt lat="52.0678411145" lon="-2.2220804170"><ele>16.00</ele><time>2014-04-23T09:10:58Z</time></trkpt><trkpt lat="52.0680022985" lon="-2.2222693451"><ele>16.00</ele><time>2014-04-23T09:11:19Z</time></trkpt><trkpt lat="52.0681451261" lon="-2.2225342970"><ele>16.00</ele><time>2014-04-23T09:11:39Z</time></trkpt><trkpt lat="52.0683631394" lon="-2.2227379773"><ele>15.52</ele><time>2014-04-23T09:12:03Z</time></trkpt><trkpt lat="52.0685058832" lon="-2.2228455171"><ele>16.00</ele><time>2014-04-23T09:12:20Z</time></trkpt><trkpt lat="52.0686147641" lon="-2.2229339462"><ele>16.00</ele><time>2014-04-23T09:12:39Z</time></trkpt><trkpt lat="52.0686648879" lon="-2.2229775321"><ele>16.48</ele><time>2014-04-23T09:12:56Z</time></trkpt><trkpt lat="52.0687931310" lon="-2.2231279034"><ele>16.00</ele><time>2014-04-23T09:13:14Z</time></trkpt><trkpt lat="52.0689299237" lon="-2.2232018318"><ele>16.48</ele><time>2014-04-23T09:13:30Z</time></trkpt><trkpt lat="52.0690620225" lon="-2.2233167477"><ele>16.48</ele><time>2014-04-23T09:13:46Z</time></trkpt><trkpt lat="52.0692304149" lon="-2.2234645206"><ele>16.00</ele><time>2014-04-23T09:14:04Z</time></trkpt><trkpt lat="52.0694274735" lon="-2.2236413788"><ele>16.48</ele><time>2014-04-23T09:14:26Z</time></trkpt><trkpt lat="52.0695960335" lon="-2.2237758245"><ele>15.52</ele><time>2014-04-23T09:14:47Z</time></trkpt><trkpt lat="52.0697875600" lon="-2.2239060793"><ele>16.00</ele><time>2014-04-23T09:15:07Z</time></trkpt><trkpt lat="52.0699810982" lon="-2.2240473144"><ele>16.00</ele><time>2014-04-23T09:15:27Z</time></trkpt><trkpt lat="52.0701701101" lon="-2.2241914831"><ele>16.00</ele><time>2014-04-23T09:15:47Z</time></trkpt><trkpt lat="52.0703810826" lon="-2.2243955825"><ele>15.04</ele><time>2014-04-23T09:16:09Z</time></trkpt><trkpt lat="52.0705654845" lon="-2.2245305311"><ele>16.00</ele><time>2014-04-23T09:16:29Z</time></trkpt><trkpt lat="52.0706617087" lon="-2.2245761286"><ele>16.48</ele><time>2014-04-23T09:16:46Z</time></trkpt><trkpt lat="52.0706992596" lon="-2.2245898750"><ele>16.00</ele><time>2014-04-23T09:17:03Z</time></trkpt><trkpt lat="52.0707274228" lon="-2.2246068902"><ele>16.00</ele><time>2014-04-23T09:17:16Z</time></trkpt><trkpt lat="52.0709377248" lon="-2.2247725166"><ele>15.52</ele><time>2014-04-23T09:17:37Z</time></trkpt><trkpt lat="52.0711524691" lon="-2.2249567509"><ele>15.52</ele><time>2014-04-23T09:17:59Z</time></trkpt><trkpt lat="52.0713369548" lon="-2.2250869218"><ele>15.52</ele><time>2014-04-23T09:18:19Z</time></trkpt><trkpt lat="52.0715213567" lon="-2.2252162546"><ele>15.52</ele><time>2014-04-23T09:18:40Z</time></trkpt><trkpt lat="52.0716972928" lon="-2.2253473476"><ele>15.52</ele><time>2014-04-23T09:18:59Z</time></trkpt><trkpt lat="52.0718655176" lon="-2.2254931089"><ele>15.52</ele><time>2014-04-23T09:19:17Z</time></trkpt><trkpt lat="52.0720364247" lon="-2.2256470844"><ele>15.04</ele><time>2014-04-23T09:19:37Z</time></trkpt><trkpt lat="52.0722302143" lon="-2.2257881518"><ele>16.00</ele><time>2014-04-23T09:19:57Z</time></trkpt><trkpt lat="52.0724119339" lon="-2.2258776706"><ele>15.52</ele><time>2014-04-23T09:20:17Z</time></trkpt><trkpt lat="52.0726195537" lon="-2.2259445582"><ele>16.00</ele><time>2014-04-23T09:20:37Z</time></trkpt><trkpt lat="52.0728630479" lon="-2.2259873059"><ele>16.00</ele><time>2014-04-23T09:21:01Z</time></trkpt><trkpt lat="52.0731305983" lon="-2.2259943467"><ele>15.04</ele><time>2014-04-23T09:21:25Z</time></trkpt><trkpt lat="52.0734025910" lon="-2.2259954363"><ele>15.04</ele><time>2014-04-23T09:21:50Z</time></trkpt><trkpt lat="52.0736648608" lon="-2.2260634135"><ele>15.04</ele><time>2014-04-23T09:22:13Z</time></trkpt><trkpt lat="52.0738645177" lon="-2.2260756511"><ele>15.52</ele><time>2014-04-23T09:22:31Z</time></trkpt><trkpt lat="52.0741144661" lon="-2.2260638326"><ele>16.00</ele><time>2014-04-23T09:22:54Z</time></trkpt><trkpt lat="52.0743338205" lon="-2.2260821890"><ele>15.04</ele><time>2014-04-23T09:23:18Z</time></trkpt><trkpt lat="52.0744053181" lon="-2.2260694485"><ele>15.52</ele><time>2014-04-23T09:23:36Z</time></trkpt><trkpt lat="52.0745690167" lon="-2.2260368429"><ele>16.00</ele><time>2014-04-23T09:23:55Z</time></trkpt><trkpt lat="52.0747724455" lon="-2.2259511799"><ele>15.52</ele><time>2014-04-23T09:24:20Z</time></trkpt><trkpt lat="52.0750284288" lon="-2.2259542812"><ele>15.52</ele><time>2014-04-23T09:24:44Z</time></trkpt><trkpt lat="52.0751982462" lon="-2.2259267885"><ele>16.00</ele><time>2014-04-23T09:25:02Z</time></trkpt><trkpt lat="52.0754452609" lon="-2.2259072587"><ele>15.52</ele><time>2014-04-23T09:25:26Z</time></trkpt><trkpt lat="52.0756272320" lon="-2.2258896567"><ele>15.52</ele><time>2014-04-23T09:25:44Z</time></trkpt><trkpt lat="52.0758512802" lon="-2.2258703783"><ele>15.04</ele><time>2014-04-23T09:26:07Z</time></trkpt><trkpt lat="52.0760723110" lon="-2.2258148901"><ele>15.52</ele><time>2014-04-23T09:26:29Z</time></trkpt><trkpt lat="52.0762980357" lon="-2.2257573064"><ele>15.04</ele><time>2014-04-23T09:26:54Z</time></trkpt><trkpt lat="52.0765313040" lon="-2.2257134691"><ele>15.52</ele><time>2014-04-23T09:27:17Z</time></trkpt><trkpt lat="52.0767970942" lon="-2.2256702185"><ele>15.52</ele><time>2014-04-23T09:27:41Z</time></trkpt><trkpt lat="52.0770433545" lon="-2.2255729046"><ele>15.52</ele><time>2014-04-23T09:28:05Z</time></trkpt><trkpt lat="52.0772104058" lon="-2.2254890855"><ele>16.00</ele><time>2014-04-23T09:28:24Z</time></trkpt><trkpt lat="52.0774217136" lon="-2.2254276462"><ele>15.52</ele><time>2014-04-23T09:28:45Z</time></trkpt><trkpt lat="52.0776838996" lon="-2.2253071982"><ele>15.04</ele><time>2014-04-23T09:29:11Z</time></trkpt><trkpt lat="52.0778931119" lon="-2.2251471039"><ele>15.04</ele><time>2014-04-23T09:29:35Z</time></trkpt><trkpt lat="52.0780941937" lon="-2.2250177711"><ele>14.56</ele><time>2014-04-23T09:29:57Z</time></trkpt><trkpt lat="52.0783547871" lon="-2.2248509713"><ele>15.04</ele><time>2014-04-23T09:30:23Z</time></trkpt><trkpt lat="52.0786004607" lon="-2.2246431001"><ele>15.04</ele><time>2014-04-23T09:30:49Z</time></trkpt><trkpt lat="52.0788178872" lon="-2.2244455386"><ele>15.04</ele><time>2014-04-23T09:31:15Z</time></trkpt><trkpt lat="52.0789166261" lon="-2.2243330535"><ele>15.04</ele><time>2014-04-23T09:31:28Z</time></trkpt><trkpt lat="52.0791614614" lon="-2.2240567859"><ele>14.56</ele><time>2014-04-23T09:31:57Z</time></trkpt><trkpt lat="52.0793684945" lon="-2.2238608170"><ele>14.56</ele><time>2014-04-23T09:32:20Z</time></trkpt><trkpt lat="52.0795639604" lon="-2.2236338351"><ele>14.08</ele><time>2014-04-23T09:32:45Z</time></trkpt><trkpt lat="52.0797338616" lon="-2.2234193422"><ele>15.04</ele><time>2014-04-23T09:33:07Z</time></trkpt><trkpt lat="52.0799352787" lon="-2.2231657058"><ele>14.08</ele><time>2014-04-23T09:33:32Z</time></trkpt><trkpt lat="52.0801704749" lon="-2.2231055237"><ele>13.12</ele><time>2014-04-23T09:33:55Z</time></trkpt><trkpt lat="52.0802090317" lon="-2.2231141571"><ele>14.08</ele><time>2014-04-23T09:34:19Z</time></trkpt><trkpt lat="52.0802123006" lon="-2.2231121454"><ele>13.12</ele><time>2014-04-23T09:34:36Z</time></trkpt><trkpt lat="52.0802166592" lon="-2.2231078707"><ele>13.60</ele><time>2014-04-23T09:34:52Z</time></trkpt><trkpt lat="52.0802222751" lon="-2.2231080383"><ele>13.60</ele><time>2014-04-23T09:35:11Z</time></trkpt><trkpt lat="52.0802251250" lon="-2.2231077030"><ele>13.60</ele><time>2014-04-23T09:35:39Z</time></trkpt><trkpt lat="52.0802727342" lon="-2.2229853272"><ele>13.60</ele><time>2014-04-23T09:35:56Z</time></trkpt><trkpt lat="52.0803373586" lon="-2.2227415815"><ele>14.56</ele><time>2014-04-23T09:36:17Z</time></trkpt><trkpt lat="52.0804079343" lon="-2.2226044536"><ele>15.04</ele><time>2014-04-23T09:36:37Z</time></trkpt><trkpt lat="52.0804921724" lon="-2.2225301061"><ele>14.08</ele><time>2014-04-23T09:36:51Z</time></trkpt><trkpt lat="52.0806048252" lon="-2.2223318741"><ele>14.08</ele><time>2014-04-23T09:37:11Z</time></trkpt><trkpt lat="52.0807194896" lon="-2.2221266013"><ele>14.56</ele><time>2014-04-23T09:37:32Z</time></trkpt><trkpt lat="52.0808838587" lon="-2.2218758985"><ele>13.60</ele><time>2014-04-23T09:37:55Z</time></trkpt><trkpt lat="52.0810091682" lon="-2.2216327395"><ele>14.08</ele><time>2014-04-23T09:38:18Z</time></trkpt><trkpt lat="52.0811480563" lon="-2.2213967890"><ele>14.08</ele><time>2014-04-23T09:38:40Z</time></trkpt><trkpt lat="52.0812603738" lon="-2.2212044243"><ele>14.08</ele><time>2014-04-23T09:38:57Z</time></trkpt><trkpt lat="52.0813938137" lon="-2.2209549788"><ele>14.08</ele><time>2014-04-23T09:39:19Z</time></trkpt><trkpt lat="52.0815539081" lon="-2.2206477821"><ele>14.08</ele><time>2014-04-23T09:39:44Z</time></trkpt><trkpt lat="52.0816793013" lon="-2.2204126697"><ele>13.60</ele><time>2014-04-23T09:40:02Z</time></trkpt><trkpt lat="52.0818179380" lon="-2.2201393358"><ele>14.08</ele><time>2014-04-23T09:40:24Z</time></trkpt><trkpt lat="52.0819563232" lon="-2.2198707797"><ele>13.60</ele><time>2014-04-23T09:40:47Z</time></trkpt><trkpt lat="52.0820926968" lon="-2.2196432110"><ele>13.60</ele><time>2014-04-23T09:41:06Z</time></trkpt><trkpt lat="52.0822159108" lon="-2.2193951067"><ele>13.60</ele><time>2014-04-23T09:41:25Z</time></trkpt><trkpt lat="52.0823558047" lon="-2.2191411350"><ele>13.60</ele><time>2014-04-23T09:41:45Z</time></trkpt><trkpt lat="52.0824651048" lon="-2.2189019155"><ele>13.60</ele><time>2014-04-23T09:42:04Z</time></trkpt><trkpt lat="52.0826180745" lon="-2.2186214570"><ele>13.60</ele><time>2014-04-23T09:42:25Z</time></trkpt><trkpt lat="52.0827337448" lon="-2.2183792200"><ele>13.60</ele><time>2014-04-23T09:42:44Z</time></trkpt><trkpt lat="52.0828283764" lon="-2.2181432694"><ele>14.08</ele><time>2014-04-23T09:43:02Z</time></trkpt><trkpt lat="52.0829540212" lon="-2.2178987693"><ele>13.60</ele><time>2014-04-23T09:43:23Z</time></trkpt><trkpt lat="52.0830691047" lon="-2.2176366672"><ele>13.60</ele><time>2014-04-23T09:43:44Z</time></trkpt><trkpt lat="52.0831443742" lon="-2.2175020538"><ele>13.60</ele><time>2014-04-23T09:44:06Z</time></trkpt><trkpt lat="52.0831632335" lon="-2.2174795065"><ele>13.60</ele><time>2014-04-23T09:44:28Z</time></trkpt><trkpt lat="52.0831623115" lon="-2.2174785845"><ele>13.60</ele><time>2014-04-23T09:44:44Z</time></trkpt><trkpt lat="52.0831700228" lon="-2.2174736392"><ele>13.60</ele><time>2014-04-23T09:45:00Z</time></trkpt><trkpt lat="52.0831799973" lon="-2.2174630780"><ele>13.60</ele><time>2014-04-23T09:45:32Z</time></trkpt><trkpt lat="52.0831836853" lon="-2.2174648382"><ele>13.60</ele><time>2014-04-23T09:45:56Z</time></trkpt><trkpt lat="52.0831665024" lon="-2.2174380161"><ele>13.60</ele><time>2014-04-23T09:46:21Z</time></trkpt><trkpt lat="52.0831809193" lon="-2.2174633294"><ele>13.12</ele><time>2014-04-23T09:46:43Z</time></trkpt><trkpt lat="52.0831799135" lon="-2.2174590547"><ele>13.12</ele><time>2014-04-23T09:47:12Z</time></trkpt><trkpt lat="52.0831779018" lon="-2.2174509242"><ele>13.12</ele><time>2014-04-23T09:47:40Z</time></trkpt><trkpt lat="52.0831797458" lon="-2.2174545284"><ele>13.12</ele><time>2014-04-23T09:48:12Z</time></trkpt><trkpt lat="52.0831790753" lon="-2.2174565401"><ele>12.63</ele><time>2014-04-23T09:48:43Z</time></trkpt><trkpt lat="52.0831792429" lon="-2.2174572106"><ele>13.12</ele><time>2014-04-23T09:49:14Z</time></trkpt><trkpt lat="52.0831779018" lon="-2.2174583003"><ele>12.63</ele><time>2014-04-23T09:49:42Z</time></trkpt><trkpt lat="52.0831770636" lon="-2.2174598929"><ele>13.12</ele><time>2014-04-23T09:50:07Z</time></trkpt><trkpt lat="52.0831766445" lon="-2.2174608987"><ele>12.63</ele><time>2014-04-23T09:50:36Z</time></trkpt><trkpt lat="52.0831763931" lon="-2.2174697835"><ele>13.12</ele><time>2014-04-23T09:51:02Z</time></trkpt><trkpt lat="52.0831795782" lon="-2.2174551990"><ele>13.12</ele><time>2014-04-23T09:51:27Z</time></trkpt><trkpt lat="52.0831782371" lon="-2.2174476553"><ele>13.12</ele><time>2014-04-23T09:51:56Z</time></trkpt><trkpt lat="52.0831752196" lon="-2.2174453922"><ele>13.12</ele><time>2014-04-23T09:52:23Z</time></trkpt><trkpt lat="52.0831767283" lon="-2.2174417879"><ele>12.63</ele><time>2014-04-23T09:52:48Z</time></trkpt><trkpt lat="52.0831768960" lon="-2.2174435481"><ele>12.63</ele><time>2014-04-23T09:53:16Z</time></trkpt><trkpt lat="52.0831759740" lon="-2.2174503375"><ele>13.12</ele><time>2014-04-23T09:53:39Z</time></trkpt><trkpt lat="52.0831757225" lon="-2.2174595576"><ele>12.63</ele><time>2014-04-23T09:54:10Z</time></trkpt><trkpt lat="52.0831689332" lon="-2.2174665984"><ele>12.63</ele><time>2014-04-23T09:54:39Z</time></trkpt><trkpt lat="52.0831715316" lon="-2.2174619883"><ele>12.63</ele><time>2014-04-23T09:55:01Z</time></trkpt><trkpt lat="52.0831715316" lon="-2.2174634133"><ele>12.63</ele><time>2014-04-23T09:55:20Z</time></trkpt><trkpt lat="52.0831701066" lon="-2.2174652573"><ele>13.12</ele><time>2014-04-23T09:55:43Z</time></trkpt><trkpt lat="52.0831698552" lon="-2.2174702864"><ele>13.12</ele><time>2014-04-23T09:56:09Z</time></trkpt><trkpt lat="52.0831705257" lon="-2.2174705379"><ele>13.12</ele><time>2014-04-23T09:56:34Z</time></trkpt><trkpt lat="52.0831638202" lon="-2.2174690291"><ele>12.63</ele><time>2014-04-23T09:57:02Z</time></trkpt><trkpt lat="52.0831618924" lon="-2.2174662631"><ele>12.63</ele><time>2014-04-23T09:57:23Z</time></trkpt><trkpt lat="52.0831622276" lon="-2.2174676880"><ele>13.12</ele><time>2014-04-23T09:57:46Z</time></trkpt><trkpt lat="52.0831444580" lon="-2.2174615692"><ele>13.12</ele><time>2014-04-23T09:58:00Z</time></trkpt><trkpt lat="52.0830059052" lon="-2.2174243536"><ele>12.63</ele><time>2014-04-23T09:58:17Z</time></trkpt><trkpt lat="52.0828262810" lon="-2.2174406983"><ele>12.63</ele><time>2014-04-23T09:58:35Z</time></trkpt><trkpt lat="52.0827907417" lon="-2.2174483258"><ele>12.63</ele><time>2014-04-23T09:58:38Z</time></trkpt><trkpt lat="52.0825709682" lon="-2.2174677718"><ele>12.63</ele><time>2014-04-23T09:58:56Z</time></trkpt><trkpt lat="52.0823720656" lon="-2.2174594738"><ele>11.19</ele><time>2014-04-23T09:59:15Z</time></trkpt><trkpt lat="52.0821879152" lon="-2.2174617369"><ele>12.15</ele><time>2014-04-23T09:59:31Z</time></trkpt><trkpt lat="52.0820112247" lon="-2.2174665984"><ele>12.63</ele><time>2014-04-23T09:59:49Z</time></trkpt><trkpt lat="52.0818493702" lon="-2.2174549475"><ele>12.63</ele><time>2014-04-23T10:00:06Z</time></trkpt><trkpt lat="52.0816948917" lon="-2.2174522653"><ele>12.63</ele><time>2014-04-23T10:00:21Z</time></trkpt><trkpt lat="52.0815307740" lon="-2.2174505051"><ele>12.63</ele><time>2014-04-23T10:00:37Z</time></trkpt><trkpt lat="52.0813740324" lon="-2.2174693644"><ele>12.15</ele><time>2014-04-23T10:00:52Z</time></trkpt><trkpt lat="52.0812045503" lon="-2.2175843641"><ele>12.15</ele><time>2014-04-23T10:01:10Z</time></trkpt><trkpt lat="52.0811417699" lon="-2.2176943347"><ele>12.15</ele><time>2014-04-23T10:01:28Z</time></trkpt><trkpt lat="52.0810212381" lon="-2.2178369109"><ele>12.15</ele><time>2014-04-23T10:01:46Z</time></trkpt><trkpt lat="52.0810074918" lon="-2.2178354859"><ele>12.15</ele><time>2014-04-23T10:01:47Z</time></trkpt><trkpt lat="52.0808738843" lon="-2.2177720349"><ele>12.63</ele><time>2014-04-23T10:01:59Z</time></trkpt><trkpt lat="52.0806577988" lon="-2.2176970169"><ele>12.63</ele><time>2014-04-23T10:02:16Z</time></trkpt><trkpt lat="52.0805313159" lon="-2.2176985256"><ele>12.15</ele><time>2014-04-23T10:02:33Z</time></trkpt><trkpt lat="52.0804671943" lon="-2.2176841088"><ele>12.15</ele><time>2014-04-23T10:02:40Z</time></trkpt><trkpt lat="52.0803241991" lon="-2.2177007049"><ele>11.67</ele><time>2014-04-23T10:02:55Z</time></trkpt><trkpt lat="52.0802528691" lon="-2.2176823486"><ele>11.67</ele><time>2014-04-23T10:03:12Z</time></trkpt><trkpt lat="52.0800584089" lon="-2.2176005412"><ele>11.19</ele><time>2014-04-23T10:03:35Z</time></trkpt><trkpt lat="52.0798789524" lon="-2.2174895648"><ele>11.19</ele><time>2014-04-23T10:03:55Z</time></trkpt><trkpt lat="52.0796494558" lon="-2.2174149659"><ele>11.19</ele><time>2014-04-23T10:04:19Z</time></trkpt><trkpt lat="52.0794720110" lon="-2.2174111102"><ele>10.71</ele><time>2014-04-23T10:04:38Z</time></trkpt><trkpt lat="52.0793859288" lon="-2.2173527721"><ele>11.19</ele><time>2014-04-23T10:04:57Z</time></trkpt><trkpt lat="52.0793660637" lon="-2.2173189092"><ele>11.19</ele><time>2014-04-23T10:05:03Z</time></trkpt><trkpt lat="52.0792875253" lon="-2.2172443941"><ele>11.19</ele><time>2014-04-23T10:05:11Z</time></trkpt><trkpt lat="52.0790844318" lon="-2.2171097808"><ele>10.71</ele><time>2014-04-23T10:05:30Z</time></trkpt><trkpt lat="52.0788767282" lon="-2.2169615049"><ele>11.19</ele><time>2014-04-23T10:05:50Z</time></trkpt><trkpt lat="52.0786634088" lon="-2.2167377081"><ele>11.19</ele><time>2014-04-23T10:06:11Z</time></trkpt><trkpt lat="52.0784294698" lon="-2.2165316809"><ele>12.15</ele><time>2014-04-23T10:06:33Z</time></trkpt><trkpt lat="52.0782971196" lon="-2.2164633684"><ele>11.19</ele><time>2014-04-23T10:06:50Z</time></trkpt><trkpt lat="52.0780799445" lon="-2.2163023520"><ele>11.19</ele><time>2014-04-23T10:07:11Z</time></trkpt><trkpt lat="52.0778600872" lon="-2.2161980812"><ele>12.15</ele><time>2014-04-23T10:07:31Z</time></trkpt><trkpt lat="52.0776366256" lon="-2.2160594445"><ele>12.63</ele><time>2014-04-23T10:07:52Z</time></trkpt><trkpt lat="52.0774115715" lon="-2.2159720212"><ele>12.15</ele><time>2014-04-23T10:08:14Z</time></trkpt><trkpt lat="52.0772276726" lon="-2.2158651520"><ele>11.19</ele><time>2014-04-23T10:08:34Z</time></trkpt><trkpt lat="52.0770628005" lon="-2.2157652397"><ele>11.19</ele><time>2014-04-23T10:08:54Z</time></trkpt><trkpt lat="52.0768633951" lon="-2.2157253418"><ele>10.23</ele><time>2014-04-23T10:09:15Z</time></trkpt><trkpt lat="52.0766291209" lon="-2.2156194784"><ele>10.23</ele><time>2014-04-23T10:09:39Z</time></trkpt><trkpt lat="52.0764287096" lon="-2.2154795006"><ele>10.71</ele><time>2014-04-23T10:10:00Z</time></trkpt><trkpt lat="52.0763788372" lon="-2.2154375911"><ele>10.71</ele><time>2014-04-23T10:10:18Z</time></trkpt><trkpt lat="52.0763142966" lon="-2.2154181451"><ele>11.19</ele><time>2014-04-23T10:10:36Z</time></trkpt><trkpt lat="52.0762201678" lon="-2.2153756488"><ele>9.75</ele><time>2014-04-23T10:10:56Z</time></trkpt><trkpt lat="52.0760312397" lon="-2.2151473258"><ele>9.27</ele><time>2014-04-23T10:11:18Z</time></trkpt><trkpt lat="52.0757917687" lon="-2.2149093635"><ele>9.75</ele><time>2014-04-23T10:11:42Z</time></trkpt><trkpt lat="52.0755666308" lon="-2.2147211898"><ele>9.27</ele><time>2014-04-23T10:12:05Z</time></trkpt><trkpt lat="52.0753567480" lon="-2.2145694774"><ele>10.23</ele><time>2014-04-23T10:12:27Z</time></trkpt><trkpt lat="52.0751307718" lon="-2.2144355346"><ele>9.27</ele><time>2014-04-23T10:12:50Z</time></trkpt><trkpt lat="52.0748882834" lon="-2.2142558265"><ele>9.75</ele><time>2014-04-23T10:13:12Z</time></trkpt><trkpt lat="52.0746385027" lon="-2.2140321974"><ele>9.75</ele><time>2014-04-23T10:13:38Z</time></trkpt><trkpt lat="52.0744604710" lon="-2.2138580214"><ele>9.27</ele><time>2014-04-23T10:14:00Z</time></trkpt><trkpt lat="52.0742801763" lon="-2.2136726975"><ele>9.27</ele><time>2014-04-23T10:14:24Z</time></trkpt><trkpt lat="52.0742536057" lon="-2.2136421036"><ele>9.27</ele><time>2014-04-23T10:14:27Z</time></trkpt><trkpt lat="52.0740119554" lon="-2.2133834381"><ele>9.75</ele><time>2014-04-23T10:14:50Z</time></trkpt><trkpt lat="52.0738295652" lon="-2.2130782530"><ele>9.27</ele><time>2014-04-23T10:15:13Z</time></trkpt><trkpt lat="52.0736478455" lon="-2.2127988003"><ele>9.75</ele><time>2014-04-23T10:15:34Z</time></trkpt><trkpt lat="52.0735060237" lon="-2.2126026638"><ele>10.23</ele><time>2014-04-23T10:15:54Z</time></trkpt><trkpt lat="52.0735009108" lon="-2.2125577368"><ele>9.27</ele><time>2014-04-23T10:16:15Z</time></trkpt><trkpt lat="52.0734918583" lon="-2.2125563957"><ele>9.75</ele><time>2014-04-23T10:16:16Z</time></trkpt><trkpt lat="52.0734223723" lon="-2.2125395481"><ele>9.75</ele><time>2014-04-23T10:16:33Z</time></trkpt><trkpt lat="52.0734164212" lon="-2.2124314215"><ele>10.23</ele><time>2014-04-23T10:16:51Z</time></trkpt><trkpt lat="52.0733656269" lon="-2.2124310862"><ele>9.75</ele><time>2014-04-23T10:17:14Z</time></trkpt><trkpt lat="52.0731827337" lon="-2.2121895198"><ele>10.23</ele><time>2014-04-23T10:17:34Z</time></trkpt><trkpt lat="52.0730207115" lon="-2.2119683214"><ele>10.23</ele><time>2014-04-23T10:17:55Z</time></trkpt><trkpt lat="52.0729031134" lon="-2.2118099034"><ele>10.71</ele><time>2014-04-23T10:18:18Z</time></trkpt><trkpt lat="52.0727560949" lon="-2.2117233183"><ele>10.23</ele><time>2014-04-23T10:18:36Z</time></trkpt><trkpt lat="52.0727234054" lon="-2.2116995975"><ele>10.71</ele><time>2014-04-23T10:18:40Z</time></trkpt><trkpt lat="52.0725338068" lon="-2.2115347255"><ele>10.71</ele><time>2014-04-23T10:18:59Z</time></trkpt><trkpt lat="52.0723530091" lon="-2.2114099190"><ele>10.23</ele><time>2014-04-23T10:19:17Z</time></trkpt><trkpt lat="52.0723279472" lon="-2.2113834321"><ele>10.23</ele><time>2014-04-23T10:19:20Z</time></trkpt><trkpt lat="52.0722967666" lon="-2.2113301232"><ele>10.23</ele><time>2014-04-23T10:19:26Z</time></trkpt><trkpt lat="52.0721132867" lon="-2.2111718729"><ele>10.23</ele><time>2014-04-23T10:19:47Z</time></trkpt><trkpt lat="52.0719887316" lon="-2.2111102659"><ele>10.23</ele><time>2014-04-23T10:20:02Z</time></trkpt><trkpt lat="52.0718609076" lon="-2.2109436337"><ele>9.75</ele><time>2014-04-23T10:20:18Z</time></trkpt><trkpt lat="52.0717331674" lon="-2.2108632512"><ele>10.23</ele><time>2014-04-23T10:20:32Z</time></trkpt><trkpt lat="52.0716979634" lon="-2.2108557913"><ele>11.19</ele><time>2014-04-23T10:20:46Z</time></trkpt><trkpt lat="52.0716983825" lon="-2.2108582221"><ele>10.23</ele><time>2014-04-23T10:21:06Z</time></trkpt><trkpt lat="52.0717351791" lon="-2.2108751535"><ele>10.71</ele><time>2014-04-23T10:21:29Z</time></trkpt><trkpt lat="52.0717374422" lon="-2.2108842060"><ele>10.71</ele><time>2014-04-23T10:21:54Z</time></trkpt><trkpt lat="52.0717474166" lon="-2.2108920850"><ele>10.23</ele><time>2014-04-23T10:22:16Z</time></trkpt><trkpt lat="52.0717460755" lon="-2.2108978685"><ele>10.71</ele><time>2014-04-23T10:22:36Z</time></trkpt><trkpt lat="52.0717638452" lon="-2.2108623292"><ele>11.19</ele><time>2014-04-23T10:22:53Z</time></trkpt><trkpt lat="52.0717521105" lon="-2.2108921688"><ele>10.71</ele><time>2014-04-23T10:23:17Z</time></trkpt><trkpt lat="52.0717388671" lon="-2.2108890675"><ele>10.23</ele><time>2014-04-23T10:23:42Z</time></trkpt><trkpt lat="52.0717192534" lon="-2.2108508460"><ele>10.71</ele><time>2014-04-23T10:24:04Z</time></trkpt><trkpt lat="52.0717233606" lon="-2.2108577192"><ele>10.23</ele><time>2014-04-23T10:24:29Z</time></trkpt><trkpt lat="52.0717103686" lon="-2.2108620778"><ele>10.23</ele><time>2014-04-23T10:24:52Z</time></trkpt><trkpt lat="52.0717029925" lon="-2.2108730581"><ele>10.71</ele><time>2014-04-23T10:25:12Z</time></trkpt><trkpt lat="52.0716264658" lon="-2.2108159773"><ele>10.23</ele><time>2014-04-23T10:25:34Z</time></trkpt><trkpt lat="52.0715628471" lon="-2.2108329087"><ele>10.23</ele><time>2014-04-23T10:25:49Z</time></trkpt><trkpt lat="52.0715507772" lon="-2.2108620778"><ele>11.19</ele><time>2014-04-23T10:26:10Z</time></trkpt><trkpt lat="52.0715549681" lon="-2.2108583059"><ele>10.71</ele><time>2014-04-23T10:26:36Z</time></trkpt><trkpt lat="52.0715401322" lon="-2.2108581383"><ele>11.19</ele><time>2014-04-23T10:26:58Z</time></trkpt><trkpt lat="52.0714369509" lon="-2.2109953500"><ele>10.71</ele><time>2014-04-23T10:27:20Z</time></trkpt><trkpt lat="52.0715404674" lon="-2.2109040711"><ele>10.71</ele><time>2014-04-23T10:27:43Z</time></trkpt><trkpt lat="52.0715634339" lon="-2.2108712979"><ele>11.19</ele><time>2014-04-23T10:28:12Z</time></trkpt><trkpt lat="52.0715753362" lon="-2.2108669393"><ele>10.71</ele><time>2014-04-23T10:28:40Z</time></trkpt><trkpt lat="52.0715838857" lon="-2.2108619940"><ele>11.67</ele><time>2014-04-23T10:29:08Z</time></trkpt><trkpt lat="52.0715362765" lon="-2.2108548693"><ele>11.67</ele><time>2014-04-23T10:29:33Z</time></trkpt><trkpt lat="52.0715406351" lon="-2.2108785063"><ele>11.19</ele><time>2014-04-23T10:29:54Z</time></trkpt><trkpt lat="52.0715950336" lon="-2.2108262870"><ele>10.71</ele><time>2014-04-23T10:30:15Z</time></trkpt><trkpt lat="52.0714633539" lon="-2.2108728904"><ele>10.23</ele><time>2014-04-23T10:30:30Z</time></trkpt><trkpt lat="52.0712999068" lon="-2.2108873073"><ele>10.71</ele><time>2014-04-23T10:30:46Z</time></trkpt><trkpt lat="52.0711528044" lon="-2.2108865529"><ele>10.71</ele><time>2014-04-23T10:31:01Z</time></trkpt><trkpt lat="52.0709810592" lon="-2.2107391991"><ele>10.71</ele><time>2014-04-23T10:31:18Z</time></trkpt><trkpt lat="52.0709216315" lon="-2.2106884886"><ele>10.71</ele><time>2014-04-23T10:31:25Z</time></trkpt><trkpt lat="52.0707679912" lon="-2.2105283942"><ele>11.19</ele><time>2014-04-23T10:31:44Z</time></trkpt><trkpt lat="52.0706205536" lon="-2.2103470098"><ele>11.19</ele><time>2014-04-23T10:32:01Z</time></trkpt><trkpt lat="52.0704744570" lon="-2.2101041023"><ele>10.71</ele><time>2014-04-23T10:32:21Z</time></trkpt><trkpt lat="52.0703050587" lon="-2.2100394778"><ele>10.71</ele><time>2014-04-23T10:32:37Z</time></trkpt><trkpt lat="52.0701220818" lon="-2.2099315189"><ele>10.71</ele><time>2014-04-23T10:32:56Z</time></trkpt><trkpt lat="52.0699871331" lon="-2.2099240590"><ele>11.19</ele><time>2014-04-23T10:33:11Z</time></trkpt><trkpt lat="52.0698200818" lon="-2.2099161800"><ele>11.19</ele><time>2014-04-23T10:33:26Z</time></trkpt><trkpt lat="52.0696579758" lon="-2.2099202871"><ele>11.67</ele><time>2014-04-23T10:33:41Z</time></trkpt><trkpt lat="52.0696246997" lon="-2.2099007573"><ele>11.19</ele><time>2014-04-23T10:33:59Z</time></trkpt><trkpt lat="52.0695439819" lon="-2.2099496238"><ele>11.19</ele><time>2014-04-23T10:34:17Z</time></trkpt><trkpt lat="52.0693688840" lon="-2.2099111509"><ele>11.67</ele><time>2014-04-23T10:34:35Z</time></trkpt><trkpt lat="52.0692622662" lon="-2.2098795511"><ele>12.15</ele><time>2014-04-23T10:34:54Z</time></trkpt><trkpt lat="52.0692452509" lon="-2.2098648828"><ele>11.67</ele><time>2014-04-23T10:35:12Z</time></trkpt><trkpt lat="52.0690390561" lon="-2.2098438442"><ele>12.15</ele><time>2014-04-23T10:35:33Z</time></trkpt><trkpt lat="52.0689060353" lon="-2.2097575944"><ele>12.63</ele><time>2014-04-23T10:35:50Z</time></trkpt><trkpt lat="52.0689074602" lon="-2.2097468656"><ele>12.63</ele><time>2014-04-23T10:36:08Z</time></trkpt><trkpt lat="52.0689119864" lon="-2.2097415011"><ele>12.63</ele><time>2014-04-23T10:36:32Z</time></trkpt><trkpt lat="52.0688533969" lon="-2.2097331192"><ele>12.15</ele><time>2014-04-23T10:36:46Z</time></trkpt><trkpt lat="52.0687394030" lon="-2.2096724343"><ele>11.19</ele><time>2014-04-23T10:37:08Z</time></trkpt><trkpt lat="52.0685943961" lon="-2.2095746174"><ele>11.67</ele><time>2014-04-23T10:37:26Z</time></trkpt><trkpt lat="52.0685607847" lon="-2.2095325403"><ele>11.67</ele><time>2014-04-23T10:37:38Z</time></trkpt><trkpt lat="52.0684918854" lon="-2.2094548400"><ele>11.67</ele><time>2014-04-23T10:37:44Z</time></trkpt><trkpt lat="52.0684405044" lon="-2.2094068956"><ele>11.67</ele><time>2014-04-23T10:37:49Z</time></trkpt><trkpt lat="52.0682905521" lon="-2.2091588750"><ele>11.67</ele><time>2014-04-23T10:38:04Z</time></trkpt><trkpt lat="52.0682292804" lon="-2.2089549433"><ele>12.63</ele><time>2014-04-23T10:38:19Z</time></trkpt><trkpt lat="52.0682459604" lon="-2.2089302167"><ele>12.15</ele><time>2014-04-23T10:38:29Z</time></trkpt><trkpt lat="52.0681920648" lon="-2.2089295462"><ele>11.19</ele><time>2014-04-23T10:38:35Z</time></trkpt><trkpt lat="52.0681623928" lon="-2.2088592220"><ele>10.71</ele><time>2014-04-23T10:38:39Z</time></trkpt><trkpt lat="52.0680097584" lon="-2.2085149772"><ele>11.67</ele><time>2014-04-23T10:38:57Z</time></trkpt><trkpt lat="52.0679148752" lon="-2.2082042601"><ele>12.63</ele><time>2014-04-23T10:39:13Z</time></trkpt><trkpt lat="52.0679214131" lon="-2.2081578244"><ele>12.63</ele><time>2014-04-23T10:39:16Z</time></trkpt><trkpt lat="52.0679641608" lon="-2.2078494541"><ele>12.63</ele><time>2014-04-23T10:39:35Z</time></trkpt><trkpt lat="52.0679938328" lon="-2.2075356357"><ele>13.60</ele><time>2014-04-23T10:39:56Z</time></trkpt><trkpt lat="52.0679810923" lon="-2.2071773931"><ele>13.60</ele><time>2014-04-23T10:40:14Z</time></trkpt><trkpt lat="52.0679702796" lon="-2.2071200609"><ele>13.60</ele><time>2014-04-23T10:40:17Z</time></trkpt><trkpt lat="52.0679581258" lon="-2.2070796601"><ele>13.12</ele><time>2014-04-23T10:40:19Z</time></trkpt><trkpt lat="52.0679075830" lon="-2.2068559472"><ele>13.60</ele><time>2014-04-23T10:40:35Z</time></trkpt><trkpt lat="52.0679074153" lon="-2.2068490740"><ele>13.60</ele><time>2014-04-23T10:40:36Z</time></trkpt><trkpt lat="52.0679012127" lon="-2.2068247665"><ele>13.60</ele><time>2014-04-23T10:40:38Z</time></trkpt><trkpt lat="52.0678904001" lon="-2.2067608964"><ele>14.08</ele><time>2014-04-23T10:40:41Z</time></trkpt><trkpt lat="52.0678508375" lon="-2.2065407038"><ele>14.56</ele><time>2014-04-23T10:40:54Z</time></trkpt><trkpt lat="52.0678197406" lon="-2.2065248620"><ele>14.08</ele><time>2014-04-23T10:40:57Z</time></trkpt><trkpt lat="52.0677523501" lon="-2.2064940166"><ele>14.56</ele><time>2014-04-23T10:41:02Z</time></trkpt><trkpt lat="52.0677194931" lon="-2.2064053360"><ele>14.08</ele><time>2014-04-23T10:41:13Z</time></trkpt><trkpt lat="52.0676759072" lon="-2.2062589880"><ele>15.52</ele><time>2014-04-23T10:41:24Z</time></trkpt><trkpt lat="52.0676717162" lon="-2.2062186711"><ele>14.56</ele><time>2014-04-23T10:41:26Z</time></trkpt><trkpt lat="52.0676551200" lon="-2.2061433177"><ele>15.52</ele><time>2014-04-23T10:41:30Z</time></trkpt><trkpt lat="52.0676257834" lon="-2.2059770208"><ele>15.52</ele><time>2014-04-23T10:41:39Z</time></trkpt><trkpt lat="52.0676163118" lon="-2.2059318423"><ele>15.52</ele><time>2014-04-23T10:41:42Z</time></trkpt><trkpt lat="52.0675905794" lon="-2.2057931218"><ele>16.00</ele><time>2014-04-23T10:41:57Z</time></trkpt><trkpt lat="52.0675895736" lon="-2.2057740949"><ele>16.00</ele><time>2014-04-23T10:42:00Z</time></trkpt><trkpt lat="52.0675806887" lon="-2.2057020105"><ele>16.00</ele><time>2014-04-23T10:42:04Z</time></trkpt><trkpt lat="52.0675536990" lon="-2.2054674011"><ele>16.48</ele><time>2014-04-23T10:42:17Z</time></trkpt><trkpt lat="52.0675375219" lon="-2.2052648943"><ele>16.96</ele><time>2014-04-23T10:42:29Z</time></trkpt><trkpt lat="52.0675314870" lon="-2.2050463781"><ele>17.44</ele><time>2014-04-23T10:42:42Z</time></trkpt><trkpt lat="52.0675283857" lon="-2.2049428616"><ele>17.92</ele><time>2014-04-23T10:42:49Z</time></trkpt><trkpt lat="52.0675351750" lon="-2.2047888860"><ele>17.92</ele><time>2014-04-23T10:43:04Z</time></trkpt><trkpt lat="52.0675576385" lon="-2.2046697792"><ele>17.92</ele><time>2014-04-23T10:43:22Z</time></trkpt><trkpt lat="52.0675785094" lon="-2.2044831980"><ele>17.92</ele><time>2014-04-23T10:43:34Z</time></trkpt><trkpt lat="52.0676264539" lon="-2.2042561322"><ele>18.40</ele><time>2014-04-23T10:43:48Z</time></trkpt><trkpt lat="52.0676685311" lon="-2.2041031625"><ele>18.88</ele><time>2014-04-23T10:43:59Z</time></trkpt><trkpt lat="52.0676746499" lon="-2.2040581517"><ele>18.40</ele><time>2014-04-23T10:44:09Z</time></trkpt><trkpt lat="52.0676180720" lon="-2.2039207723"><ele>18.40</ele><time>2014-04-23T10:44:21Z</time></trkpt><trkpt lat="52.0675442275" lon="-2.2038340196"><ele>18.40</ele><time>2014-04-23T10:44:30Z</time></trkpt><trkpt lat="52.0675104484" lon="-2.2038664576"><ele>17.92</ele><time>2014-04-23T10:44:42Z</time></trkpt><trkpt lat="52.0675103646" lon="-2.2038675472"><ele>21.29</ele><time>2014-04-23T10:44:45Z</time></trkpt><trkpt lat="52.0675099455" lon="-2.2038683854"><ele>17.92</ele><time>2014-04-23T10:44:46Z</time></trkpt><trkpt lat="52.0675050002" lon="-2.2038729116"><ele>13.12</ele><time>2014-04-23T10:45:09Z</time></trkpt><trkpt lat="52.0675049163" lon="-2.2038729955"><ele>15.52</ele><time>2014-04-23T10:45:10Z</time></trkpt><trkpt lat="52.0675050840" lon="-2.2038729116"><ele>18.40</ele><time>2014-04-23T10:45:12Z</time></trkpt><trkpt lat="52.0675051678" lon="-2.2038729116"><ele>17.92</ele><time>2014-04-23T10:45:13Z</time></trkpt><trkpt lat="52.0675055031" lon="-2.2038725764"><ele>15.04</ele><time>2014-04-23T10:45:32Z</time></trkpt><trkpt lat="52.0675055031" lon="-2.2038724925"><ele>18.40</ele><time>2014-04-23T10:45:33Z</time></trkpt><trkpt lat="52.0675039105" lon="-2.2038745042"><ele>18.88</ele><time>2014-04-23T10:45:40Z</time></trkpt><trkpt lat="52.0675020665" lon="-2.2038785275"><ele>14.56</ele><time>2014-04-23T10:45:57Z</time></trkpt><trkpt lat="52.0675024856" lon="-2.2038885858"><ele>18.40</ele><time>2014-04-23T10:46:07Z</time></trkpt><trkpt lat="52.0674776752" lon="-2.2038916033"><ele>16.96</ele><time>2014-04-23T10:46:27Z</time></trkpt><trkpt lat="52.0674812794" lon="-2.2038952075"><ele>26.57</ele><time>2014-04-23T10:46:34Z</time></trkpt><trkpt lat="52.0674872305" lon="-2.2038955428"><ele>17.92</ele><time>2014-04-23T10:46:35Z</time></trkpt><trkpt lat="52.0674641803" lon="-2.2038856521"><ele>16.96</ele><time>2014-04-23T10:46:48Z</time></trkpt><trkpt lat="52.0673267171" lon="-2.2038052697"><ele>16.96</ele><time>2014-04-23T10:47:00Z</time></trkpt><trkpt lat="52.0672532916" lon="-2.2037719935"><ele>16.48</ele><time>2014-04-23T10:47:07Z</time></trkpt><trkpt lat="52.0671160799" lon="-2.2037070338"><ele>17.44</ele><time>2014-04-23T10:47:18Z</time></trkpt><trkpt lat="52.0671056025" lon="-2.2036882583"><ele>16.96</ele><time>2014-04-23T10:47:20Z</time></trkpt><trkpt lat="52.0670131501" lon="-2.2036134917"><ele>17.44</ele><time>2014-04-23T10:47:29Z</time></trkpt><trkpt lat="52.0668787044" lon="-2.2034829855"><ele>17.92</ele><time>2014-04-23T10:47:40Z</time></trkpt><trkpt lat="52.0667699073" lon="-2.2034096438"><ele>17.44</ele><time>2014-04-23T10:47:50Z</time></trkpt><trkpt lat="52.0667492040" lon="-2.2033923771"><ele>17.44</ele><time>2014-04-23T10:47:52Z</time></trkpt><trkpt lat="52.0665670652" lon="-2.2032593563"><ele>16.96</ele><time>2014-04-23T10:48:07Z</time></trkpt><trkpt lat="52.0665502176" lon="-2.2032726835"><ele>17.44</ele><time>2014-04-23T10:48:11Z</time></trkpt><trkpt lat="52.0664732717" lon="-2.2034242284"><ele>16.96</ele><time>2014-04-23T10:48:22Z</time></trkpt><trkpt lat="52.0664437674" lon="-2.2035319358"><ele>17.44</ele><time>2014-04-23T10:48:27Z</time></trkpt><trkpt lat="52.0664186217" lon="-2.2036070377"><ele>17.92</ele><time>2014-04-23T10:48:32Z</time></trkpt><trkpt lat="52.0663299412" lon="-2.2038608417"><ele>18.40</ele><time>2014-04-23T10:48:42Z</time></trkpt><trkpt lat="52.0663021971" lon="-2.2039537132"><ele>17.92</ele><time>2014-04-23T10:48:48Z</time></trkpt><trkpt lat="52.0662781410" lon="-2.2039787751"><ele>16.96</ele><time>2014-04-23T10:48:50Z</time></trkpt><trkpt lat="52.0661949925" lon="-2.2039921861"><ele>17.92</ele><time>2014-04-23T10:48:56Z</time></trkpt><trkpt lat="52.0661493950" lon="-2.2039960418"><ele>17.92</ele><time>2014-04-23T10:49:00Z</time></trkpt><trkpt lat="52.0661367383" lon="-2.2040020768"><ele>18.88</ele><time>2014-04-23T10:49:02Z</time></trkpt><trkpt lat="52.0660517458" lon="-2.2040231992"><ele>17.92</ele><time>2014-04-23T10:49:08Z</time></trkpt><trkpt lat="52.0659194794" lon="-2.2040580679"><ele>18.88</ele><time>2014-04-23T10:49:19Z</time></trkpt><trkpt lat="52.0657193195" lon="-2.2040151525"><ele>19.36</ele><time>2014-04-23T10:49:35Z</time></trkpt><trkpt lat="52.0654865541" lon="-2.2039489355"><ele>19.36</ele><time>2014-04-23T10:49:49Z</time></trkpt><trkpt lat="52.0652973745" lon="-2.2038842272"><ele>19.36</ele><time>2014-04-23T10:50:03Z</time></trkpt><trkpt lat="52.0652790181" lon="-2.2038765997"><ele>19.36</ele><time>2014-04-23T10:50:05Z</time></trkpt><trkpt lat="52.0650744159" lon="-2.2037916910"><ele>19.84</ele><time>2014-04-23T10:50:19Z</time></trkpt><trkpt lat="52.0648912713" lon="-2.2037346102"><ele>19.84</ele><time>2014-04-23T10:50:34Z</time></trkpt><trkpt lat="52.0646624453" lon="-2.2036118153"><ele>20.32</ele><time>2014-04-23T10:50:49Z</time></trkpt><trkpt lat="52.0645771176" lon="-2.2035141662"><ele>20.81</ele><time>2014-04-23T10:50:56Z</time></trkpt><trkpt lat="52.0645524748" lon="-2.2034761962"><ele>20.81</ele><time>2014-04-23T10:51:00Z</time></trkpt><trkpt lat="52.0644222200" lon="-2.2034161817"><ele>20.81</ele><time>2014-04-23T10:51:09Z</time></trkpt><trkpt lat="52.0643703360" lon="-2.2033513058"><ele>20.81</ele><time>2014-04-23T10:51:14Z</time></trkpt><trkpt lat="52.0643217210" lon="-2.2032744437"><ele>20.32</ele><time>2014-04-23T10:51:19Z</time></trkpt><trkpt lat="52.0642487146" lon="-2.2031325381"><ele>21.29</ele><time>2014-04-23T10:51:27Z</time></trkpt><trkpt lat="52.0641316194" lon="-2.2029524948"><ele>20.81</ele><time>2014-04-23T10:51:39Z</time></trkpt><trkpt lat="52.0641322900" lon="-2.2029503994"><ele>20.81</ele><time>2014-04-23T10:51:40Z</time></trkpt><trkpt lat="52.0640468784" lon="-2.2028253414"><ele>20.81</ele><time>2014-04-23T10:51:47Z</time></trkpt><trkpt lat="52.0640167873" lon="-2.2027550172"><ele>21.29</ele><time>2014-04-23T10:51:52Z</time></trkpt><trkpt lat="52.0638857782" lon="-2.2027585376"><ele>20.81</ele><time>2014-04-23T10:52:06Z</time></trkpt><trkpt lat="52.0638772286" lon="-2.2027606331"><ele>20.81</ele><time>2014-04-23T10:52:07Z</time></trkpt><trkpt lat="52.0637372509" lon="-2.2027167957"><ele>20.81</ele><time>2014-04-23T10:52:21Z</time></trkpt><trkpt lat="52.0636631548" lon="-2.2026583739"><ele>20.81</ele><time>2014-04-23T10:52:28Z</time></trkpt><trkpt lat="52.0635301340" lon="-2.2025601380"><ele>20.81</ele><time>2014-04-23T10:52:40Z</time></trkpt><trkpt lat="52.0634810161" lon="-2.2024717927"><ele>19.84</ele><time>2014-04-23T10:52:47Z</time></trkpt><trkpt lat="52.0633921679" lon="-2.2023438010"><ele>21.29</ele><time>2014-04-23T10:52:56Z</time></trkpt><trkpt lat="52.0633661840" lon="-2.2023059987"><ele>20.81</ele><time>2014-04-23T10:52:59Z</time></trkpt><trkpt lat="52.0633557905" lon="-2.2022562940"><ele>20.81</ele><time>2014-04-23T10:53:04Z</time></trkpt><trkpt lat="52.0633231010" lon="-2.2023008857"><ele>20.81</ele><time>2014-04-23T10:53:10Z</time></trkpt><trkpt lat="52.0632582251" lon="-2.2023560386"><ele>20.81</ele><time>2014-04-23T10:53:17Z</time></trkpt><trkpt lat="52.0632406231" lon="-2.2023836989"><ele>20.81</ele><time>2014-04-23T10:53:19Z</time></trkpt><trkpt lat="52.0631341729" lon="-2.2025481518"><ele>22.25</ele><time>2014-04-23T10:53:32Z</time></trkpt><trkpt lat="52.0631215163" lon="-2.2025708668"><ele>21.77</ele><time>2014-04-23T10:53:34Z</time></trkpt><trkpt lat="52.0630299859" lon="-2.2027109284"><ele>22.25</ele><time>2014-04-23T10:53:47Z</time></trkpt><trkpt lat="52.0629568957" lon="-2.2027009539"><ele>23.21</ele><time>2014-04-23T10:53:53Z</time></trkpt><trkpt lat="52.0628921036" lon="-2.2026360780"><ele>22.25</ele><time>2014-04-23T10:54:01Z</time></trkpt><trkpt lat="52.0627741702" lon="-2.2025453858"><ele>22.25</ele><time>2014-04-23T10:54:14Z</time></trkpt><trkpt lat="52.0627362002" lon="-2.2024888080"><ele>22.25</ele><time>2014-04-23T10:54:18Z</time></trkpt><trkpt lat="52.0627105515" lon="-2.2024590522"><ele>21.29</ele><time>2014-04-23T10:54:22Z</time></trkpt><trkpt lat="52.0626543928" lon="-2.2023793403"><ele>21.29</ele><time>2014-04-23T10:54:29Z</time></trkpt><trkpt lat="52.0626027603" lon="-2.2023245227"><ele>21.29</ele><time>2014-04-23T10:54:42Z</time></trkpt><trkpt lat="52.0625361241" lon="-2.2023809329"><ele>19.84</ele><time>2014-04-23T10:54:56Z</time></trkpt><trkpt lat="52.0624077972" lon="-2.2024898138"><ele>18.88</ele><time>2014-04-23T10:55:13Z</time></trkpt><trkpt lat="52.0623953920" lon="-2.2026874591"><ele>17.44</ele><time>2014-04-23T10:55:26Z</time></trkpt><trkpt lat="52.0624322724" lon="-2.2028464638"><ele>15.52</ele><time>2014-04-23T10:55:41Z</time></trkpt><trkpt lat="52.0624534786" lon="-2.2028988507"><ele>15.04</ele><time>2014-04-23T10:55:46Z</time></trkpt><trkpt lat="52.0624648780" lon="-2.2030716855"><ele>14.56</ele><time>2014-04-23T10:56:03Z</time></trkpt><trkpt lat="52.0624642912" lon="-2.2030776367"><ele>14.08</ele><time>2014-04-23T10:56:10Z</time></trkpt><trkpt lat="52.0624740142" lon="-2.2030970827"><ele>13.60</ele><time>2014-04-23T10:56:12Z</time></trkpt><trkpt lat="52.0625790395" lon="-2.2032902017"><ele>13.60</ele><time>2014-04-23T10:56:24Z</time></trkpt><trkpt lat="52.0626460947" lon="-2.2035259847"><ele>13.12</ele><time>2014-04-23T10:56:40Z</time></trkpt><trkpt lat="52.0626631938" lon="-2.2035756055"><ele>13.60</ele><time>2014-04-23T10:56:51Z</time></trkpt><trkpt lat="52.0626714081" lon="-2.2036003321"><ele>12.63</ele><time>2014-04-23T10:56:55Z</time></trkpt><trkpt lat="52.0627121441" lon="-2.2036656272"><ele>13.60</ele><time>2014-04-23T10:56:58Z</time></trkpt><trkpt lat="52.0627374575" lon="-2.2037085425"><ele>13.12</ele><time>2014-04-23T10:57:02Z</time></trkpt><trkpt lat="52.0628224500" lon="-2.2039228678"><ele>12.63</ele><time>2014-04-23T10:57:14Z</time></trkpt><trkpt lat="52.0628871582" lon="-2.2040655278"><ele>12.63</ele><time>2014-04-23T10:57:23Z</time></trkpt><trkpt lat="52.0629103761" lon="-2.2040916793"><ele>12.63</ele><time>2014-04-23T10:57:26Z</time></trkpt><trkpt lat="52.0629689656" lon="-2.2042351775"><ele>13.12</ele><time>2014-04-23T10:57:35Z</time></trkpt><trkpt lat="52.0630102046" lon="-2.2043251153"><ele>12.63</ele><time>2014-04-23T10:57:41Z</time></trkpt><trkpt lat="52.0630383678" lon="-2.2044338286"><ele>13.12</ele><time>2014-04-23T10:57:48Z</time></trkpt><trkpt lat="52.0630677044" lon="-2.2045541089"><ele>13.12</ele><time>2014-04-23T10:57:57Z</time></trkpt><trkpt lat="52.0631095301" lon="-2.2046449687"><ele>12.63</ele><time>2014-04-23T10:58:03Z</time></trkpt><trkpt lat="52.0631541219" lon="-2.2048752196"><ele>13.12</ele><time>2014-04-23T10:58:17Z</time></trkpt><trkpt lat="52.0631790161" lon="-2.2050265968"><ele>12.63</ele><time>2014-04-23T10:58:29Z</time></trkpt><trkpt lat="52.0632245298" lon="-2.2051705141"><ele>12.63</ele><time>2014-04-23T10:58:37Z</time></trkpt><trkpt lat="52.0632614940" lon="-2.2053059656"><ele>13.12</ele><time>2014-04-23T10:58:44Z</time></trkpt><trkpt lat="52.0633102767" lon="-2.2055683192"><ele>13.12</ele><time>2014-04-23T10:58:57Z</time></trkpt><trkpt lat="52.0633501746" lon="-2.2057056986"><ele>13.12</ele><time>2014-04-23T10:59:06Z</time></trkpt><trkpt lat="52.0633646753" lon="-2.2058339417"><ele>12.63</ele><time>2014-04-23T10:59:14Z</time></trkpt><trkpt lat="52.0633845404" lon="-2.2060080338"><ele>13.12</ele><time>2014-04-23T10:59:26Z</time></trkpt><trkpt lat="52.0634012204" lon="-2.2061500233"><ele>12.63</ele><time>2014-04-23T10:59:34Z</time></trkpt><trkpt lat="52.0634024777" lon="-2.2061947826"><ele>12.15</ele><time>2014-04-23T10:59:36Z</time></trkpt><trkpt lat="52.0634213369" lon="-2.2062647715"><ele>13.12</ele><time>2014-04-23T10:59:40Z</time></trkpt><trkpt lat="52.0634272043" lon="-2.2062959522"><ele>12.15</ele><time>2014-04-23T10:59:42Z</time></trkpt><trkpt lat="52.0634424593" lon="-2.2063681204"><ele>12.15</ele><time>2014-04-23T10:59:47Z</time></trkpt><trkpt lat="52.0634411182" lon="-2.2064042464"><ele>12.15</ele><time>2014-04-23T10:59:49Z</time></trkpt><trkpt lat="52.0634542778" lon="-2.2064942680"><ele>12.63</ele><time>2014-04-23T10:59:55Z</time></trkpt><trkpt lat="52.0635090955" lon="-2.2066834476"><ele>13.12</ele><time>2014-04-23T11:00:06Z</time></trkpt><trkpt lat="52.0635337383" lon="-2.2069118544"><ele>12.63</ele><time>2014-04-23T11:00:19Z</time></trkpt><trkpt lat="52.0635629911" lon="-2.2071080748"><ele>12.63</ele><time>2014-04-23T11:00:31Z</time></trkpt><trkpt lat="52.0635748934" lon="-2.2071670834"><ele>12.15</ele><time>2014-04-23T11:00:35Z</time></trkpt><trkpt lat="52.0635862090" lon="-2.2072660737"><ele>12.63</ele><time>2014-04-23T11:00:42Z</time></trkpt><trkpt lat="52.0635888074" lon="-2.2073352244"><ele>12.15</ele><time>2014-04-23T11:00:47Z</time></trkpt><trkpt lat="52.0635933336" lon="-2.2073752061"><ele>12.63</ele><time>2014-04-23T11:00:49Z</time></trkpt><trkpt lat="52.0636067446" lon="-2.2074556723"><ele>12.15</ele><time>2014-04-23T11:00:54Z</time></trkpt><trkpt lat="52.0636223350" lon="-2.2075552493"><ele>11.67</ele><time>2014-04-23T11:01:00Z</time></trkpt><trkpt lat="52.0636453852" lon="-2.2077430878"><ele>12.15</ele><time>2014-04-23T11:01:12Z</time></trkpt><trkpt lat="52.0636546891" lon="-2.2077731788"><ele>11.67</ele><time>2014-04-23T11:01:15Z</time></trkpt><trkpt lat="52.0636613108" lon="-2.2078123223"><ele>12.15</ele><time>2014-04-23T11:01:17Z</time></trkpt><trkpt lat="52.0636756439" lon="-2.2078828141"><ele>12.15</ele><time>2014-04-23T11:01:21Z</time></trkpt><trkpt lat="52.0636937488" lon="-2.2080128174"><ele>12.15</ele><time>2014-04-23T11:01:29Z</time></trkpt><trkpt lat="52.0637099259" lon="-2.2080781963"><ele>12.15</ele><time>2014-04-23T11:01:33Z</time></trkpt><trkpt lat="52.0637197327" lon="-2.2081957106"><ele>12.15</ele><time>2014-04-23T11:01:40Z</time></trkpt><trkpt lat="52.0637323894" lon="-2.2082605027"><ele>12.63</ele><time>2014-04-23T11:01:44Z</time></trkpt><trkpt lat="52.0637490693" lon="-2.2083821241"><ele>11.19</ele><time>2014-04-23T11:01:52Z</time></trkpt><trkpt lat="52.0637608878" lon="-2.2085335013"><ele>11.67</ele><time>2014-04-23T11:02:00Z</time></trkpt><trkpt lat="52.0637939125" lon="-2.2086142190"><ele>11.19</ele><time>2014-04-23T11:02:05Z</time></trkpt><trkpt lat="52.0638027135" lon="-2.2087142151"><ele>12.15</ele><time>2014-04-23T11:02:11Z</time></trkpt><trkpt lat="52.0638083294" lon="-2.2088098526"><ele>11.67</ele><time>2014-04-23T11:02:17Z</time></trkpt><trkpt lat="52.0638105925" lon="-2.2088666819"><ele>11.67</ele><time>2014-04-23T11:02:20Z</time></trkpt><trkpt lat="52.0638295356" lon="-2.2089059092"><ele>12.15</ele><time>2014-04-23T11:02:23Z</time></trkpt><trkpt lat="52.0638429467" lon="-2.2090178076"><ele>11.19</ele><time>2014-04-23T11:02:30Z</time></trkpt><trkpt lat="52.0638504066" lon="-2.2091826797"><ele>11.19</ele><time>2014-04-23T11:02:39Z</time></trkpt><trkpt lat="52.0638558548" lon="-2.2092572786"><ele>11.19</ele><time>2014-04-23T11:02:44Z</time></trkpt><trkpt lat="52.0638664160" lon="-2.2093424387"><ele>11.67</ele><time>2014-04-23T11:02:50Z</time></trkpt><trkpt lat="52.0638760552" lon="-2.2094224021"><ele>12.15</ele><time>2014-04-23T11:02:55Z</time></trkpt><trkpt lat="52.0638915617" lon="-2.2095208056"><ele>12.15</ele><time>2014-04-23T11:03:01Z</time></trkpt><trkpt lat="52.0638900530" lon="-2.2095980868"><ele>11.67</ele><time>2014-04-23T11:03:06Z</time></trkpt><trkpt lat="52.0638966747" lon="-2.2096587718"><ele>11.19</ele><time>2014-04-23T11:03:10Z</time></trkpt><trkpt lat="52.0638986025" lon="-2.2097416688"><ele>11.67</ele><time>2014-04-23T11:03:15Z</time></trkpt><trkpt lat="52.0639242511" lon="-2.2098117415"><ele>11.67</ele><time>2014-04-23T11:03:19Z</time></trkpt><trkpt lat="52.0639275201" lon="-2.2098677326"><ele>11.19</ele><time>2014-04-23T11:03:22Z</time></trkpt><trkpt lat="52.0639153663" lon="-2.2099312674"><ele>10.71</ele><time>2014-04-23T11:03:27Z</time></trkpt><trkpt lat="52.0639224071" lon="-2.2100745980"><ele>10.71</ele><time>2014-04-23T11:03:34Z</time></trkpt><trkpt lat="52.0639139414" lon="-2.2101349477"><ele>10.71</ele><time>2014-04-23T11:03:38Z</time></trkpt><trkpt lat="52.0639069844" lon="-2.2102160007"><ele>10.23</ele><time>2014-04-23T11:03:43Z</time></trkpt><trkpt lat="52.0639181323" lon="-2.2103106324"><ele>11.19</ele><time>2014-04-23T11:03:50Z</time></trkpt><trkpt lat="52.0639872830" lon="-2.2104737442"><ele>12.63</ele><time>2014-04-23T11:04:02Z</time></trkpt><trkpt lat="52.0640022866" lon="-2.2104864847"><ele>12.15</ele><time>2014-04-23T11:04:04Z</time></trkpt><trkpt lat="52.0640253369" lon="-2.2105025779"><ele>13.12</ele><time>2014-04-23T11:04:07Z</time></trkpt><trkpt lat="52.0640450343" lon="-2.2105009016"><ele>12.63</ele><time>2014-04-23T11:04:09Z</time></trkpt><trkpt lat="52.0640737005" lon="-2.2104894184"><ele>12.63</ele><time>2014-04-23T11:04:12Z</time></trkpt><trkpt lat="52.0641695894" lon="-2.2104535438"><ele>12.63</ele><time>2014-04-23T11:04:24Z</time></trkpt><trkpt lat="52.0641757920" lon="-2.2104593273"><ele>12.63</ele><time>2014-04-23T11:04:29Z</time></trkpt><trkpt lat="52.0641760435" lon="-2.2104431503"><ele>12.63</ele><time>2014-04-23T11:04:45Z</time></trkpt><trkpt lat="52.0641870238" lon="-2.2104355227"><ele>12.15</ele><time>2014-04-23T11:04:53Z</time></trkpt><trkpt lat="52.0642291848" lon="-2.2104237881"><ele>12.15</ele><time>2014-04-23T11:04:58Z</time></trkpt><trkpt lat="52.0643051248" lon="-2.2104090359"><ele>12.63</ele><time>2014-04-23T11:05:05Z</time></trkpt><trkpt lat="52.0643580984" lon="-2.2103971336"><ele>12.63</ele><time>2014-04-23T11:05:09Z</time></trkpt><trkpt lat="52.0644381456" lon="-2.2103771847"><ele>10.71</ele><time>2014-04-23T11:05:23Z</time></trkpt><trkpt lat="52.0644663926" lon="-2.2104302421"><ele>12.15</ele><time>2014-04-23T11:05:59Z</time></trkpt><trkpt lat="52.0644855872" lon="-2.2104278114"><ele>12.15</ele><time>2014-04-23T11:06:34Z</time></trkpt><trkpt lat="52.0644839108" lon="-2.2104249615"><ele>11.67</ele><time>2014-04-23T11:06:53Z</time></trkpt><trkpt lat="52.0645037759" lon="-2.2104213573"><ele>12.15</ele><time>2014-04-23T11:06:59Z</time></trkpt><trkpt lat="52.0646420773" lon="-2.2103727423"><ele>12.63</ele><time>2014-04-23T11:07:11Z</time></trkpt><trkpt lat="52.0646512136" lon="-2.2103736643"><ele>12.15</ele><time>2014-04-23T11:07:14Z</time></trkpt><trkpt lat="52.0647914428" lon="-2.2103581578"><ele>11.67</ele><time>2014-04-23T11:07:26Z</time></trkpt><trkpt lat="52.0649038441" lon="-2.2103496920"><ele>11.67</ele><time>2014-04-23T11:07:35Z</time></trkpt><trkpt lat="52.0650252979" lon="-2.2103402205"><ele>12.15</ele><time>2014-04-23T11:07:44Z</time></trkpt><trkpt lat="52.0651129726" lon="-2.2103554755"><ele>11.67</ele><time>2014-04-23T11:07:51Z</time></trkpt><trkpt lat="52.0652309060" lon="-2.2103923559"><ele>12.63</ele><time>2014-04-23T11:08:00Z</time></trkpt><trkpt lat="52.0652545430" lon="-2.2103909310"><ele>12.15</ele><time>2014-04-23T11:08:02Z</time></trkpt><trkpt lat="52.0653572213" lon="-2.2104215249"><ele>12.63</ele><time>2014-04-23T11:08:09Z</time></trkpt><trkpt lat="52.0654585585" lon="-2.2105067689"><ele>12.63</ele><time>2014-04-23T11:08:18Z</time></trkpt><trkpt lat="52.0655435510" lon="-2.2106401250"><ele>12.15</ele><time>2014-04-23T11:08:28Z</time></trkpt><trkpt lat="52.0656325668" lon="-2.2108117864"><ele>12.63</ele><time>2014-04-23T11:08:38Z</time></trkpt><trkpt lat="52.0656702016" lon="-2.2109448910"><ele>12.15</ele><time>2014-04-23T11:08:44Z</time></trkpt><trkpt lat="52.0657140389" lon="-2.2110215854"><ele>12.63</ele><time>2014-04-23T11:08:50Z</time></trkpt><trkpt lat="52.0657387655" lon="-2.2111063264"><ele>11.67</ele><time>2014-04-23T11:08:54Z</time></trkpt><trkpt lat="52.0657582115" lon="-2.2111579590"><ele>12.63</ele><time>2014-04-23T11:08:56Z</time></trkpt><trkpt lat="52.0658379234" lon="-2.2113927361"><ele>12.63</ele><time>2014-04-23T11:09:07Z</time></trkpt><trkpt lat="52.0658427011" lon="-2.2114236653"><ele>12.63</ele><time>2014-04-23T11:09:09Z</time></trkpt><trkpt lat="52.0658446290" lon="-2.2114772256"><ele>12.63</ele><time>2014-04-23T11:09:12Z</time></trkpt><trkpt lat="52.0658527594" lon="-2.2116190474"><ele>12.63</ele><time>2014-04-23T11:09:19Z</time></trkpt><trkpt lat="52.0658912323" lon="-2.2117378190"><ele>12.63</ele><time>2014-04-23T11:09:25Z</time></trkpt><trkpt lat="52.0659163781" lon="-2.2117932234"><ele>12.63</ele><time>2014-04-23T11:09:30Z</time></trkpt><trkpt lat="52.0659698546" lon="-2.2118935548"><ele>13.12</ele><time>2014-04-23T11:09:39Z</time></trkpt><trkpt lat="52.0660338085" lon="-2.2119741887"><ele>13.60</ele><time>2014-04-23T11:09:44Z</time></trkpt><trkpt lat="52.0660734549" lon="-2.2120506316"><ele>12.63</ele><time>2014-04-23T11:09:50Z</time></trkpt><trkpt lat="52.0661755465" lon="-2.2121834010"><ele>12.63</ele><time>2014-04-23T11:10:03Z</time></trkpt><trkpt lat="52.0661825035" lon="-2.2121934593"><ele>12.15</ele><time>2014-04-23T11:10:04Z</time></trkpt><trkpt lat="52.0662080683" lon="-2.2122716624"><ele>12.63</ele><time>2014-04-23T11:10:16Z</time></trkpt><trkpt lat="52.0662143547" lon="-2.2122968081"><ele>13.12</ele><time>2014-04-23T11:10:31Z</time></trkpt></trkseg></trk></gpx>